createdAt,value
2022-09-17T00:02:07.364Z,5.23
2022-09-17T00:04:36.461Z,5.60
2022-09-17T00:07:24.345Z,4.87
2022-09-17T00:09:55.708Z,4.77
2022-09-17T00:12:26.006Z,5.67
2022-09-17T00:14:54.742Z,4.73
2022-09-17T00:17:23.503Z,4.67
2022-09-17T00:19:52.579Z,4.53
2022-09-17T00:22:21.868Z,5.10
2022-09-17T00:24:51.206Z,4.37
2022-09-17T00:43:02.759Z,3.00
2022-09-17T00:45:32.397Z,3.67
2022-09-17T00:48:02.475Z,2.30
2022-09-17T00:50:33.278Z,3.17
2022-09-17T00:53:07.309Z,2.23
2022-09-17T00:55:40.268Z,2.97
2022-09-17T00:58:11.943Z,2.17
2022-09-17T01:00:41.084Z,2.00
2022-09-17T01:03:09.818Z,2.67
2022-09-17T01:05:44.842Z,2.40
2022-09-17T01:08:27.148Z,2.20
2022-09-17T01:11:16.623Z,2.60
2022-09-17T01:13:56.469Z,1.90
2022-09-17T01:16:35.165Z,2.50
2022-09-17T01:19:23.510Z,2.03
2022-09-17T01:22:00.532Z,2.23
2022-09-17T01:24:51.672Z,2.90
2022-09-17T01:28:02.296Z,2.50
2022-09-17T01:31:06.306Z,2.10
2022-09-17T01:33:43.551Z,2.23
2022-09-17T01:36:24.741Z,2.43
2022-09-17T01:38:58.472Z,2.57
2022-09-17T01:41:32.592Z,2.00
2022-09-17T01:44:08.848Z,2.23
2022-09-17T01:46:45.007Z,2.10
2022-09-17T01:49:16.632Z,2.10
2022-09-17T01:51:48.604Z,2.20
2022-09-17T01:54:19.958Z,2.37
2022-09-17T01:56:53.465Z,2.50
2022-09-17T01:59:26.045Z,2.43
2022-09-17T02:02:02.031Z,2.53
2022-09-17T02:04:32.007Z,2.50
2022-09-17T02:07:05.330Z,2.60
2022-09-17T02:09:38.321Z,2.07
2022-09-17T02:12:09.758Z,2.50
2022-09-17T02:14:40.320Z,2.10
2022-09-17T02:17:15.244Z,2.20
2022-09-17T02:19:44.089Z,2.20
2022-09-17T02:22:16.968Z,2.10
2022-09-17T02:24:51.232Z,2.17
2022-09-17T02:27:26.100Z,1.93
2022-09-17T02:29:54.584Z,2.40
2022-09-17T02:32:25.708Z,1.97
2022-09-17T02:34:54.457Z,2.30
2022-09-17T02:37:23.099Z,1.90
2022-09-17T02:39:51.633Z,1.90
2022-09-17T02:42:28.855Z,1.57
2022-09-17T02:45:07.421Z,1.90
2022-09-17T02:47:54.538Z,1.50
2022-09-17T02:50:37.891Z,1.87
2022-09-17T02:53:11.372Z,1.70
2022-09-17T02:55:43.537Z,1.73
2022-09-17T02:58:22.987Z,1.77
2022-09-17T03:00:51.938Z,1.60
2022-09-17T03:03:24.827Z,1.63
2022-09-17T03:05:55.334Z,1.30
2022-09-17T03:08:29.859Z,1.40
2022-09-17T03:10:58.740Z,1.90
2022-09-17T03:13:27.430Z,1.43
2022-09-17T03:27:07.143Z,1.60
2022-09-17T03:29:35.836Z,1.30
2022-09-17T03:32:04.656Z,1.40
2022-09-17T03:34:33.427Z,1.37
2022-09-17T03:37:03.435Z,1.90
2022-09-17T03:39:32.233Z,1.50
2022-09-17T03:42:00.828Z,1.30
2022-09-17T03:44:29.245Z,1.50
2022-09-17T03:46:57.872Z,1.67
2022-09-17T03:49:27.070Z,1.60
2022-09-17T03:51:56.188Z,1.80
2022-09-17T03:54:25.879Z,1.80
2022-09-17T03:56:54.759Z,1.60
2022-09-17T03:59:23.469Z,1.90
2022-09-17T04:01:52.113Z,1.73
2022-09-17T04:04:20.564Z,1.70
2022-09-17T04:06:49.644Z,1.53
2022-09-17T04:09:18.160Z,1.33
2022-09-17T04:11:48.208Z,1.50
2022-09-17T04:14:16.791Z,1.50
2022-09-17T04:16:45.425Z,1.80
2022-09-17T04:19:13.851Z,1.70
2022-09-17T04:21:43.711Z,1.53
2022-09-17T04:24:12.396Z,1.87
2022-09-17T04:26:41.196Z,1.93
2022-09-17T04:29:11.510Z,1.90
2022-09-17T04:31:40.504Z,1.70
2022-09-17T04:34:09.174Z,2.07
2022-09-17T04:36:37.861Z,2.17
2022-09-17T04:39:06.404Z,1.60
2022-09-17T04:41:34.899Z,2.20
2022-09-17T04:44:04.734Z,1.67
2022-09-17T04:46:34.666Z,2.03
2022-09-17T04:49:03.337Z,2.37
2022-09-17T04:51:32.813Z,1.97
2022-09-17T04:54:01.312Z,2.57
2022-09-17T04:56:29.758Z,2.20
2022-09-17T04:58:58.246Z,2.23
2022-09-17T05:01:27.124Z,1.40
2022-09-17T05:03:57.627Z,1.80
2022-09-17T05:06:26.368Z,2.13
2022-09-17T05:11:42.626Z,2.03
2022-09-17T05:14:11.233Z,1.90
2022-09-17T05:16:39.767Z,1.70
2022-09-17T05:19:10.095Z,1.80
2022-09-17T05:21:38.678Z,1.80
2022-09-17T05:24:07.634Z,1.50
2022-09-17T05:26:36.431Z,1.87
2022-09-17T05:29:05.308Z,1.80
2022-09-17T05:31:34.131Z,1.90
2022-09-17T05:34:02.565Z,2.10
2022-09-17T05:36:32.330Z,1.77
2022-09-17T05:39:00.833Z,1.90
2022-09-17T05:41:29.662Z,2.20
2022-09-17T05:43:57.922Z,1.90
2022-09-17T05:46:26.468Z,1.63
2022-09-17T05:48:57.897Z,1.70
2022-09-17T05:51:26.613Z,1.80
2022-09-17T05:53:59.330Z,1.80
2022-09-17T05:56:28.892Z,1.83
2022-09-17T05:58:57.932Z,1.83
2022-09-17T06:01:26.713Z,1.60
2022-09-17T06:03:55.542Z,1.60
2022-09-17T06:06:24.358Z,1.57
2022-09-17T06:08:52.649Z,1.50
2022-09-17T06:11:22.952Z,1.73
2022-09-17T06:13:54.984Z,1.90
2022-09-17T06:16:23.849Z,1.83
2022-09-17T06:18:53.132Z,2.47
2022-09-17T06:21:23.102Z,1.63
2022-09-17T06:23:51.824Z,2.07
2022-09-17T06:37:16.694Z,2.00
2022-09-17T06:39:47.747Z,1.90
2022-09-17T06:42:16.064Z,2.07
2022-09-17T06:44:46.807Z,1.80
2022-09-17T06:47:15.479Z,1.60
2022-09-17T06:49:43.890Z,1.90
2022-09-17T06:52:14.012Z,1.63
2022-09-17T07:09:05.188Z,1.77
2022-09-17T07:11:36.367Z,1.57
2022-09-17T07:14:05.478Z,1.90
2022-09-17T07:16:36.130Z,3.03
2022-09-17T07:19:05.399Z,1.93
2022-09-17T07:21:34.236Z,2.10
2022-09-17T07:24:04.696Z,1.53
2022-09-17T07:26:33.836Z,1.77
2022-09-17T07:29:02.456Z,1.30
2022-09-17T07:31:31.772Z,1.50
2022-09-17T07:34:04.411Z,1.30
2022-09-17T07:36:33.101Z,1.50
2022-09-17T07:39:02.073Z,1.50
2022-09-17T07:41:34.536Z,1.77
2022-09-17T07:44:04.347Z,1.70
2022-09-17T07:46:34.906Z,1.60
2022-09-17T07:59:49.906Z,1.80
2022-09-17T08:15:50.275Z,1.33
2022-09-17T08:21:04.660Z,1.60
2022-09-17T08:29:01.219Z,1.53
2022-09-17T08:31:33.497Z,1.50
2022-09-17T08:34:02.752Z,1.53
2022-09-17T08:36:31.738Z,1.70
2022-09-17T08:39:01.263Z,1.50
2022-09-17T08:41:39.478Z,1.37
2022-09-17T08:44:18.428Z,1.37
2022-09-17T08:46:52.789Z,1.30
2022-09-17T08:49:30.330Z,2.00
2022-09-17T08:52:14.031Z,1.57
2022-09-17T08:54:49.581Z,1.50
2022-09-17T08:57:25.535Z,1.50
2022-09-17T09:00:01.913Z,1.50
2022-09-17T09:02:52.903Z,1.33
2022-09-17T09:05:23.136Z,1.40
2022-09-17T09:07:54.877Z,1.40
2022-09-17T09:10:28.716Z,1.73
2022-09-17T09:16:53.541Z,1.67
2022-09-17T09:19:27.036Z,2.03
2022-09-17T09:22:04.457Z,1.70
2022-09-17T09:24:42.034Z,1.97
2022-09-17T09:27:20.154Z,1.30
2022-09-17T09:30:04.319Z,1.50
2022-09-17T09:32:42.706Z,1.70
2022-09-17T09:35:18.187Z,1.20
2022-09-17T09:37:54.069Z,1.57
2022-09-17T09:40:33.088Z,1.63
2022-09-17T09:43:04.620Z,1.40
2022-09-17T09:45:51.440Z,1.93
2022-09-17T09:48:46.752Z,1.63
2022-09-17T09:51:39.380Z,1.60
2022-09-17T10:46:42.605Z,2.47
2022-09-17T10:49:53.533Z,2.70
2022-09-17T10:52:52.920Z,3.50
2022-09-17T10:55:30.406Z,2.40
2022-09-17T11:01:19.708Z,1.87
2022-09-17T11:04:16.999Z,1.87
2022-09-17T11:07:26.054Z,1.73
2022-09-17T11:10:01.327Z,2.13
2022-09-17T11:13:05.416Z,1.70
2022-09-17T11:15:59.214Z,1.93
2022-09-17T11:18:46.912Z,2.13
2022-09-17T11:21:36.445Z,2.10
2022-09-17T11:24:38.121Z,2.07
2022-09-17T11:27:17.511Z,3.03
2022-09-17T11:30:17.551Z,1.67
2022-09-17T11:33:19.131Z,2.20
2022-09-17T11:35:55.467Z,1.47
2022-09-17T11:46:18.724Z,1.63
2022-09-17T11:52:45.015Z,1.23
2022-09-17T11:56:12.978Z,1.67
2022-09-17T12:22:29.302Z,1.50
2022-09-17T12:37:25.865Z,1.90
2022-09-17T13:58:48.991Z,1.70
2022-09-17T14:01:59.262Z,2.03
2022-09-17T14:04:54.357Z,1.70
2022-09-17T14:41:47.113Z,0.80
2022-09-17T14:44:19.616Z,1.30
2022-09-17T14:46:55.493Z,1.17
2022-09-17T14:52:27.704Z,1.10
2022-09-17T14:55:26.767Z,1.10
2022-09-17T14:57:58.736Z,1.30
2022-09-17T15:00:28.572Z,1.30
2022-09-17T15:03:00.142Z,1.03
2022-09-17T15:05:32.933Z,1.00
2022-09-17T15:08:17.008Z,1.10
2022-09-17T15:10:50.650Z,1.10
2022-09-17T15:13:23.994Z,1.17
2022-09-17T15:16:12.580Z,1.20
2022-09-17T15:18:43.924Z,1.20
2022-09-17T15:21:26.271Z,1.30
2022-09-17T15:23:59.706Z,0.90
2022-09-17T15:26:31.860Z,1.20
2022-09-17T15:29:03.374Z,1.20
2022-09-17T15:31:32.130Z,1.10
2022-09-17T15:34:01.955Z,1.40
2022-09-17T15:36:32.518Z,0.90
2022-09-17T15:41:37.022Z,0.83
2022-09-17T15:44:31.774Z,1.00
2022-09-17T15:47:15.215Z,1.20
2022-09-17T15:49:43.911Z,1.00
2022-09-17T15:52:30.675Z,1.00
2022-09-17T15:54:59.187Z,1.33
2022-09-17T15:57:28.189Z,1.17
2022-09-17T15:59:58.484Z,1.00
2022-09-17T16:02:31.315Z,1.20
2022-09-17T16:08:26.079Z,1.07
2022-09-17T16:10:54.985Z,1.10
2022-09-17T16:13:28.428Z,1.40
2022-09-17T16:15:59.177Z,1.10
2022-09-17T16:18:27.791Z,1.00
2022-09-17T16:20:56.305Z,1.00
2022-09-17T16:23:24.952Z,1.10
2022-09-17T16:25:53.966Z,0.90
2022-09-17T16:28:22.351Z,1.00
2022-09-17T16:30:51.217Z,0.70
2022-09-17T16:33:22.158Z,0.83
2022-09-17T16:35:50.679Z,1.13
2022-09-17T16:40:55.592Z,0.80
2022-09-17T16:43:24.251Z,0.90
2022-09-17T16:46:00.447Z,0.80
2022-09-17T16:55:12.819Z,0.83
2022-09-17T16:57:42.505Z,0.80
2022-09-17T17:00:14.367Z,1.10
2022-09-17T17:02:43.216Z,1.00
2022-09-17T17:05:12.076Z,1.27
2022-09-17T17:07:41.567Z,1.47
2022-09-17T17:10:10.434Z,1.43
2022-09-17T17:12:39.006Z,1.40
2022-09-17T17:15:09.193Z,1.23
2022-09-17T17:17:38.052Z,1.33
2022-09-17T17:20:09.417Z,1.10
2022-09-17T17:22:38.470Z,1.23
2022-09-17T17:25:09.180Z,1.40
2022-09-17T17:27:38.313Z,1.27
2022-09-17T17:30:07.265Z,1.23
2022-09-17T17:32:37.831Z,1.53
2022-09-17T17:35:20.885Z,1.30
2022-09-17T17:37:51.659Z,1.83
2022-09-17T17:40:21.756Z,1.20
2022-09-17T17:42:53.673Z,1.40
2022-09-17T17:45:22.039Z,2.00
2022-09-17T17:47:50.167Z,1.30
2022-09-17T17:50:18.195Z,1.37
2022-09-17T17:52:48.207Z,1.40
2022-09-17T17:55:17.314Z,1.27
2022-09-17T17:57:47.322Z,1.60
2022-09-17T18:00:18.165Z,2.10
2022-09-17T18:02:46.508Z,1.37
2022-09-17T18:05:28.934Z,1.33
2022-09-17T18:07:57.302Z,0.97
2022-09-17T18:10:25.962Z,1.27
2022-09-17T18:12:56.657Z,1.53
2022-09-17T18:15:25.004Z,1.27
2022-09-17T18:17:55.807Z,1.33
2022-09-17T18:20:28.789Z,1.33
2022-09-17T18:22:57.420Z,1.33
2022-09-17T18:25:26.032Z,1.47
2022-09-17T18:28:01.100Z,1.10
2022-09-17T18:30:29.496Z,1.23
2022-09-17T18:32:58.742Z,1.37
2022-09-17T18:35:27.564Z,1.00
2022-09-17T18:37:59.149Z,1.37
2022-09-17T18:40:27.726Z,1.10
2022-09-17T18:42:57.754Z,1.40
2022-09-17T18:45:26.154Z,1.10
2022-09-17T18:47:54.662Z,1.07
2022-09-17T18:50:24.832Z,1.20
2022-09-17T18:52:54.384Z,1.00
2022-09-17T18:55:22.950Z,1.50
2022-09-17T18:57:52.211Z,1.00
2022-09-17T19:00:22.840Z,1.40
2022-09-17T19:02:51.375Z,1.50
2022-09-17T19:05:20.173Z,1.17
2022-09-17T19:07:49.104Z,1.57
2022-09-17T19:10:17.744Z,1.30
2022-09-17T19:12:46.893Z,1.37
2022-09-17T19:15:17.339Z,1.47
2022-09-17T19:23:29.388Z,1.40
2022-09-17T19:26:08.085Z,1.40
2022-09-17T19:28:39.613Z,1.60
2022-09-17T19:31:08.409Z,1.40
2022-09-17T19:33:37.557Z,1.80
2022-09-17T19:36:11.765Z,2.20
2022-09-17T19:38:40.692Z,1.50
2022-09-17T19:41:12.165Z,1.40
2022-09-17T19:43:41.535Z,1.50
2022-09-17T19:46:14.590Z,1.50
2022-09-17T19:51:45.126Z,1.50
2022-09-17T19:54:16.136Z,1.57
2022-09-17T19:56:46.990Z,1.50
2022-09-17T20:01:49.634Z,1.40
2022-09-17T20:04:19.561Z,1.60
2022-09-17T20:06:49.676Z,1.70
2022-09-17T20:09:21.505Z,1.40
2022-09-17T20:11:51.178Z,1.33
2022-09-17T20:14:22.127Z,1.60
2022-09-17T20:16:50.971Z,1.70
2022-09-17T20:19:19.548Z,1.80
2022-09-17T20:21:54.466Z,1.90
2022-09-17T20:24:24.970Z,1.53
2022-09-17T20:27:24.651Z,1.20
2022-09-17T20:29:56.671Z,1.70
2022-09-17T20:32:28.033Z,1.20
2022-09-17T20:45:44.889Z,1.20
2022-09-17T20:53:51.750Z,1.67
2022-09-17T20:56:24.603Z,2.23
2022-09-17T20:59:12.590Z,1.90
2022-09-17T21:21:13.426Z,2.10
2022-09-17T21:23:47.772Z,1.57
2022-09-17T21:26:20.696Z,1.33
2022-09-17T21:28:57.770Z,2.23
2022-09-17T21:31:31.981Z,1.20
2022-09-17T21:34:08.505Z,1.47
2022-09-17T21:36:41.326Z,1.17
2022-09-17T21:39:14.362Z,1.30
2022-09-17T21:41:45.729Z,1.40
2022-09-17T21:44:16.479Z,1.30
2022-09-17T21:46:45.730Z,1.10
2022-09-17T21:49:16.615Z,1.00
2022-09-17T21:51:47.007Z,1.00
2022-09-17T21:54:18.037Z,0.80
2022-09-17T21:56:47.025Z,1.10
2022-09-17T21:59:17.688Z,0.87
2022-09-17T22:01:48.494Z,0.77
2022-09-17T22:04:18.932Z,0.90
2022-09-17T22:09:33.958Z,0.83
2022-09-17T22:12:06.769Z,0.90
2022-09-17T22:14:37.646Z,0.90
2022-09-17T22:17:08.548Z,0.93
2022-09-17T22:19:37.205Z,1.00
2022-09-17T22:22:07.239Z,0.87
2022-09-17T22:24:36.696Z,0.60
2022-09-17T22:27:22.793Z,1.30
2022-09-17T22:29:51.692Z,1.00
2022-09-17T22:32:21.395Z,0.97
2022-09-17T22:37:51.529Z,0.90
2022-09-17T22:40:20.946Z,0.93
2022-09-17T22:45:34.245Z,1.00
2022-09-17T22:48:04.152Z,1.10
2022-09-17T22:50:33.221Z,1.10
2022-09-17T22:53:06.046Z,0.90
2022-09-17T22:55:41.106Z,1.30
2022-09-17T22:58:10.219Z,1.10
2022-09-17T23:00:38.947Z,1.00
2022-09-17T23:03:07.672Z,1.00
2022-09-17T23:05:36.637Z,1.20
2022-09-17T23:08:09.159Z,1.10
2022-09-17T23:13:23.324Z,1.50
2022-09-17T23:15:51.981Z,1.30
2022-09-17T23:18:23.311Z,1.13
2022-09-17T23:20:59.637Z,1.13
2022-09-17T23:23:40.079Z,1.53
2022-09-17T23:26:11.058Z,1.20
2022-09-17T23:28:42.221Z,1.33
2022-09-17T23:31:11.404Z,1.30
2022-09-17T23:33:40.582Z,1.30
2022-09-17T23:36:10.348Z,1.20
2022-09-17T23:38:42.807Z,1.60
2022-09-17T23:41:13.074Z,1.20
2022-09-17T23:43:41.674Z,0.97
2022-09-17T23:46:10.214Z,1.00
2022-09-17T23:48:38.842Z,1.33
2022-09-17T23:51:08.213Z,1.23
2022-09-17T23:53:37.438Z,1.20
2022-09-17T23:56:15.868Z,1.20
2022-09-17T23:58:44.730Z,1.60
